Latest Coastal Weather Observations for Kingfish B

IDV60701

Issued at 10:02 am EDT Friday 24 February 2017 (issued every 10 minutes, with the page automatically refreshed every 10 minutes)

About coastal observations | Map of coastal stations | Coastal observations for VIC | Marine services | Other Formats
Station Details ID: 400139 Name: KINGFISH B (PLATFORM) Lat: -38.60 Lon: 148.19 Height: 31.4 m
Data from the previous 72 hours. | See also: Recent months for locations in Victoria
Date/Time
EDT
Temp
°C
Wind Pressure Rain since
9am
mm
Weather Cloud Vis
km
Sea
Height
m
Swell
Dir  Spd
kts
Gust
kts
hPa Trend Height
m
Period
s
Dir
24/10:00am 17.9 SW 11 13 1022.2 - - - - - - - - -
24/09:10am 17.7 SSW 10 12 1021.9 - - - - - - - - -
24/09:00am 17.7 SSW 9 13 1021.8 - - - - - - - - -
24/08:10am 17.7 SSW 14 17 1021.7 - - - - - - - - -
24/08:00am 18.0 SSW 15 17 1021.5 - - - - - - - - -
24/07:10am 18.4 SW 15 18 1021.0 - - - - - - - - -
24/07:00am 18.4 SW 16 18 1020.9 - - - - - - - - -
24/06:10am 18.2 SW 16 19 1021.0 - - - - - - - - -
24/06:00am 18.2 SW 15 18 1021.1 - - - - - - - - -
24/05:10am 18.3 SSW 13 16 1021.2 - - - - - - - - -
24/05:00am 18.4 SW 15 17 1021.1 - - - - - - - - -
24/04:00am 18.5 SSW 15 18 1021.3 - - - - - - - - -
24/03:00am 18.6 SW 16 19 1021.3 - - - - - - - - -
24/02:00am 18.8 SW 15 18 1020.8 - - - - - - - - -
24/01:00am 19.0 SW 14 17 1020.9 - - - - - - - - -
24/12:00am 19.0 SW 9 12 1020.8 - - - - - - - - -
 
Date/Time
EDT
Temp
°C
Wind Pressure Rain since
9am
mm
Weather Cloud Vis
km
Sea
Height
m
Swell
Dir  Spd
kts
Gust
kts
hPa Trend Height
m
Period
s
Dir
23/11:00pm 19.2 SSW 7 9 1020.2 - - - - - - - - -
23/10:00pm 19.3 SSW 9 12 1019.6 - - - - - - - - -
23/09:00pm 18.9 SSW 8 10 1019.1 - - - - - - - - -
23/08:10pm 18.9 SSW 10 11 1018.6 - - - - - - - - -
23/08:00pm 19.0 SSW 9 11 1018.4 - - - - - - - - -
23/07:10pm 19.1 SSW 9 11 1018.0 - - - - - - - - -
23/07:00pm 19.1 S 8 10 1017.9 - - - - - - - - -
23/06:10pm 19.2 S 12 16 1017.6 - - - - - - - - -
23/06:00pm 19.3 S 11 15 1017.5 - - - - - - - - -
23/05:10pm 19.9 SSW 8 9 1017.2 - - - - - - - - -
23/05:00pm 20.0 SSW 8 10 1017.2 - - - - - - - - -
23/04:10pm 20.3 SSW 9 11 1017.3 - - - - - - - - -
23/04:00pm 20.4 SSW 10 11 1017.2 - - - - - - - - -
23/03:10pm 22.1 SW 12 14 1017.2 - - - - - - - - -
23/03:00pm 22.3 SW 12 15 1017.0 - - - - - - - - -
23/02:10pm 23.0 SW 10 12 1016.6 - - - - - - - - -
23/02:00pm 23.2 SW 9 13 1016.6 - - - - - - - - -
23/01:10pm 23.1 WSW 2 4 1016.4 - - - - - - - - -
23/01:00pm 23.0 WSW 3 5 1016.4 - - - - - - - - -
23/12:00pm 23.2 SW 4 5 1016.0 - - - - - - - - -
23/11:00am 21.0 SSW 4 6 1015.4 - - - - - - - - -
23/10:00am 20.7 S 7 9 1014.5 - - - - - - - - -
23/09:00am 19.8 SSW 12 15 1013.6 - - - - - - - - -
23/08:00am 20.0 SSW 13 15 1012.6 - - - - - - - - -
23/07:00am 21.1 SSW 14 19 1011.8 - - - - - - - - -
23/06:00am 21.4 NNE 16 18 1009.4 - - - - - - - - -
23/04:10am 21.3 NNE 21 23 1009.5 - - - - - - - - -
23/04:00am 21.4 NNE 21 22 1009.7 - - - - - - - - -
23/02:10am 21.4 NE 19 21 1010.8 - - - - - - - - -
23/02:00am 21.4 NE 19 20 1010.8 - - - - - - - - -
23/01:10am 21.6 NE 18 19 1011.3 - - - - - - - - -
23/01:00am 21.6 NE 17 18 1011.4 - - - - - - - - -
 
Date/Time
EDT
Temp
°C
Wind Pressure Rain since
9am
mm
Weather Cloud Vis
km
Sea
Height
m
Swell
Dir  Spd
kts
Gust
kts
hPa Trend Height
m
Period
s
Dir
22/11:00pm 20.7 NE 10 11 1011.8 - - - - - - - - -
22/10:00pm 20.4 NE 10 12 1011.8 - - - - - - - - -
22/09:00pm 20.4 ENE 9 12 1011.6 - - - - - - - - -
22/07:10pm 20.2 E 10 11 1012.3 - - - - - - - - -
22/07:00pm 20.0 E 9 10 1012.3 - - - - - - - - -
22/06:10pm 19.5 E 5 6 1013.0 - - - - - - - - -
22/06:00pm 19.5 E 3 5 1013.3 - - - - - - - - -
22/05:10pm 19.6 ENE 1 3 1014.0 - - - - - - - - -
22/05:00pm 20.0 ENE 1 2 1014.1 - - - - - - - - -
22/03:00pm 20.9 CALM 0 1 1015.4 - - - - - - - - -
22/02:00pm 20.9 NNE 5 6 1016.0 - - - - - - - - -
22/01:00pm 20.6 NNE 6 7 1016.7 - - - - - - - - -
22/12:00pm 20.5 NNE 8 9 1017.5 - - - - - - - - -
22/11:10am 20.6 NE 9 10 1017.7 - - - - - - - - -
22/11:00am 20.6 NE 9 11 1017.7 - - - - - - - - -
22/10:10am 20.1 NE 10 11 1017.6 - - - - - - - - -
22/10:00am 20.0 NE 10 11 1017.5 - - - - - - - - -
22/09:10am 18.5 NE 11 12 1017.6 - - - - - - - - -
22/09:00am 18.5 NE 10 12 1017.7 - - - - - - - - -
22/08:10am 18.3 NE 12 14 1017.5 - - - - - - - - -
22/08:00am 18.3 NE 13 15 1017.5 - - - - - - - - -
22/07:10am 18.4 NE 14 16 1017.3 - - - - - - - - -
22/07:00am 18.4 NE 14 16 1017.3 - - - - - - - - -
22/06:10am 18.3 NE 14 15 1017.7 - - - - - - - - -
22/06:00am 18.3 NE 13 16 1017.8 - - - - - - - - -
22/05:10am 18.2 NE 11 14 1018.3 - - - - - - - - -
22/05:00am 18.2 NE 11 13 1018.4 - - - - - - - - -
22/04:10am 17.9 NE 9 11 1019.2 - - - - - - - - -
22/04:00am 17.9 NE 8 10 1019.3 - - - - - - - - -
22/03:10am 17.8 NE 8 9 1020.0 - - - - - - - - -
22/03:00am 17.7 NE 8 10 1020.2 - - - - - - - - -
22/02:10am 17.6 NE 8 10 1020.7 - - - - - - - - -
22/02:00am 17.4 NE 8 10 1020.7 - - - - - - - - -
22/01:00am 16.9 NE 7 8 1021.1 - - - - - - - - -
22/12:00am 16.8 ENE 3 6 1021.1 - - - - - - - - -
 
Date/Time
EDT
Temp
°C
Wind Pressure Rain since
9am
mm
Weather Cloud Vis
km
Sea
Height
m
Swell
Dir  Spd
kts
Gust
kts
hPa Trend Height
m
Period
s
Dir
21/11:00pm 16.7 E 2 7 1020.8 - - - - - - - - -
21/10:00pm 16.7 SE 4 7 1019.7 - - - - - - - - -
21/09:00pm 16.8 SSE 2 4 1019.6 - - - - - - - - -
21/08:00pm 17.1 SSE 2 4 1019.4 - - - - - - - - -
21/06:10pm 18.0 SW 5 7 1019.6 - - - - - - - - -
21/06:00pm 18.0 SW 4 7 1019.8 - - - - - - - - -
21/05:10pm 18.4 SW 7 9 1019.9 - - - - - - - - -
21/05:00pm 18.5 SW 7 10 1020.0 - - - - - - - - -
21/04:10pm 19.3 WSW 8 10 1020.3 - - - - - - - - -
21/04:00pm 19.4 WSW 8 10 1020.3 - - - - - - - - -
21/03:10pm 19.9 WSW 9 12 1020.1 - - - - - - - - -
21/03:00pm 20.1 WSW 10 12 1020.1 - - - - - - - - -
21/02:10pm 20.2 WSW 12 15 1020.4 - - - - - - - - -
21/02:00pm 20.3 WSW 12 14 1020.5 - - - - - - - - -
21/01:10pm 20.3 WSW 13 17 1020.5 - - - - - - - - -
21/01:00pm 20.5 WSW 13 17 1020.5 - - - - - - - - -
21/12:10pm 20.3 WSW 13 18 1020.2 - - - - - - - - -
21/12:00pm 20.1 WSW 14 17 1020.1 - - - - - - - - -
21/11:10am 19.7 WSW 14 17 1019.7 - - - - - - - - -
21/11:00am 19.7 WSW 14 18 1019.6 - - - - - - - - -
21/10:10am 19.5 WSW 14 18 1018.9 - - - - - - - - -

Other Formats:

Comma delimited format used in spreadsheet applications
http://www.bom.gov.au/fwo/IDV60701/IDV60701.55039.axf

JavaScript Object Notation format (JSON) in row-major order
http://www.bom.gov.au/fwo/IDV60701/IDV60701.55039.json